createdAt,value
2022-11-05T00:03:28.969Z,101400.13
2022-11-05T00:08:49.340Z,101403.97
2022-11-05T00:14:13.636Z,101399.06
2022-11-05T00:19:16.689Z,101411.31
2022-11-05T00:24:36.687Z,101419.69
2022-11-05T00:29:38.137Z,101409.75
2022-11-05T00:34:39.653Z,101437.22
2022-11-05T00:39:41.188Z,101426.97
2022-11-05T00:45:01.239Z,101421.41
2022-11-05T00:50:02.833Z,101444.34
2022-11-05T00:55:04.615Z,101447.38
2022-11-05T01:00:06.694Z,101443.41
2022-11-05T01:05:08.834Z,101444.81
2022-11-05T01:10:10.396Z,101442.03
2022-11-05T01:15:11.940Z,101446.56
2022-11-05T01:20:13.685Z,101454.00
2022-11-05T01:25:15.233Z,101450.28
2022-11-05T01:30:16.836Z,101448.13
2022-11-05T01:35:18.869Z,101459.97
2022-11-05T01:40:22.942Z,101459.59
2022-11-05T01:45:28.865Z,101459.13
2022-11-05T01:51:01.387Z,101450.38
2022-11-05T01:56:13.961Z,101435.94
2022-11-05T02:01:16.229Z,101440.66
2022-11-05T02:06:17.768Z,101430.38
2022-11-05T02:11:19.983Z,101439.84
2022-11-05T02:16:55.195Z,101427.25
2022-11-05T02:22:18.370Z,101427.78
2022-11-05T02:27:55.198Z,101433.41
2022-11-05T02:33:21.723Z,101432.94
2022-11-05T02:38:52.438Z,101434.19
2022-11-05T02:44:02.993Z,101430.06
2022-11-05T02:49:32.996Z,101431.50
2022-11-05T02:54:57.600Z,101445.28
2022-11-05T03:00:08.637Z,101457.41
2022-11-05T03:05:10.112Z,101450.91
2022-11-05T03:10:22.733Z,101454.81
2022-11-05T03:15:30.436Z,101456.13
2022-11-05T03:20:34.491Z,101456.44
2022-11-05T03:25:45.466Z,101452.06
2022-11-05T03:30:50.318Z,101449.81
2022-11-05T03:35:58.704Z,101447.09
2022-11-05T03:41:04.889Z,101447.78
2022-11-05T03:46:11.997Z,101426.19
2022-11-05T03:51:24.513Z,101426.34
2022-11-05T03:56:48.315Z,101418.59
2022-11-05T04:01:50.104Z,101420.47
2022-11-05T04:07:10.357Z,101425.31
2022-11-05T04:12:30.148Z,101437.03
2022-11-05T04:17:31.652Z,101437.56
2022-11-05T04:22:53.421Z,101453.72
2022-11-05T04:28:00.301Z,101452.63
2022-11-05T04:33:13.765Z,101459.09
2022-11-05T04:38:18.002Z,101456.19
2022-11-05T04:43:19.944Z,101456.72
2022-11-05T04:48:21.585Z,101465.88
2022-11-05T04:53:23.053Z,101452.03
2022-11-05T04:58:24.503Z,101455.47
2022-11-05T05:03:25.968Z,101455.53
2022-11-05T05:08:27.442Z,101463.03
2022-11-05T05:13:28.897Z,101463.75
2022-11-05T05:18:30.357Z,101458.44
2022-11-05T05:23:31.852Z,101459.56
2022-11-05T05:28:33.393Z,101458.97
2022-11-05T05:33:34.909Z,101466.81
2022-11-05T05:38:36.414Z,101462.91
2022-11-05T05:43:37.880Z,101468.34
2022-11-05T05:48:39.439Z,101467.88
2022-11-05T05:53:40.924Z,101465.28
2022-11-05T05:58:42.435Z,101475.88
2022-11-05T06:03:43.895Z,101473.78
2022-11-05T06:08:45.549Z,101472.78
2022-11-05T06:13:46.996Z,101479.19
2022-11-05T06:18:48.452Z,101485.09
2022-11-05T06:23:50.117Z,101483.09
2022-11-05T06:28:51.583Z,101489.53
2022-11-05T06:33:53.175Z,101480.63
2022-11-05T06:38:54.655Z,101498.78
2022-11-05T06:43:56.112Z,101488.94
2022-11-05T06:48:57.585Z,101492.25
2022-11-05T06:53:59.038Z,101489.25
2022-11-05T06:59:00.711Z,101495.28
2022-11-05T07:04:02.150Z,101491.44
2022-11-05T07:09:04.100Z,101500.06
2022-11-05T07:14:05.588Z,101497.94
2022-11-05T07:19:07.065Z,101493.09
2022-11-05T07:24:08.947Z,101501.28
2022-11-05T07:29:10.406Z,101498.91
2022-11-05T07:34:11.960Z,101509.69
2022-11-05T07:39:13.449Z,101514.56
2022-11-05T07:44:14.898Z,101524.19
2022-11-05T07:49:16.612Z,101525.81
2022-11-05T07:54:18.116Z,101529.44
2022-11-05T07:59:19.595Z,101529.47
2022-11-05T08:04:21.135Z,101536.41
2022-11-05T08:09:22.617Z,101533.28
2022-11-05T08:14:24.061Z,101517.00
2022-11-05T08:19:25.621Z,101527.63
2022-11-05T08:24:27.084Z,101526.78
2022-11-05T08:29:28.552Z,101528.22
2022-11-05T08:34:30.022Z,101526.34
2022-11-05T08:39:31.529Z,101523.91
2022-11-05T08:44:32.974Z,101526.06
2022-11-05T08:49:34.425Z,101539.13
2022-11-05T08:54:36.105Z,101546.00
2022-11-05T08:59:37.641Z,101543.41
2022-11-05T09:04:39.084Z,101545.41
2022-11-05T09:09:40.650Z,101547.44
2022-11-05T09:14:42.148Z,101544.78
2022-11-05T09:19:43.689Z,101541.88
2022-11-05T09:24:45.120Z,101535.63
2022-11-05T09:29:46.722Z,101551.19
2022-11-05T09:34:49.022Z,101545.66
2022-11-05T09:39:50.499Z,101547.03
2022-11-05T09:45:08.260Z,101553.88
2022-11-05T09:50:25.635Z,101539.97
2022-11-05T09:55:32.409Z,101537.91
2022-11-05T10:00:34.162Z,101532.00
2022-11-05T10:05:38.119Z,101540.25
2022-11-05T10:10:47.181Z,101532.00
2022-11-05T10:16:02.577Z,101540.13
2022-11-05T10:21:05.150Z,101540.91
2022-11-05T10:26:11.754Z,101539.75
2022-11-05T10:31:17.016Z,101545.38
2022-11-05T10:36:28.656Z,101544.66
2022-11-05T10:41:35.387Z,101549.97
2022-11-05T10:47:08.215Z,101560.13
2022-11-05T10:52:42.058Z,101561.53
2022-11-05T10:57:43.619Z,101553.44
2022-11-05T11:02:52.471Z,101559.28
2022-11-05T11:08:23.567Z,101555.91
2022-11-05T11:13:28.340Z,101553.66
2022-11-05T11:18:40.048Z,101564.22
2022-11-05T11:23:52.922Z,101558.09
2022-11-05T11:29:00.560Z,101557.94
2022-11-05T11:34:07.584Z,101565.84
2022-11-05T11:39:16.710Z,101551.88
2022-11-05T11:44:26.891Z,101558.84
2022-11-05T11:49:42.059Z,101544.22
2022-11-05T11:54:43.700Z,101556.47
2022-11-05T12:00:07.925Z,101552.19
2022-11-05T12:05:17.457Z,101550.16
2022-11-05T12:10:23.552Z,101552.81
2022-11-05T12:15:41.313Z,101548.03
2022-11-05T12:21:04.718Z,101543.28
2022-11-05T12:26:40.453Z,101545.28
2022-11-05T12:32:23.786Z,101535.00
2022-11-05T12:37:48.465Z,101541.88
2022-11-05T12:43:12.179Z,101527.97
2022-11-05T12:48:46.183Z,101523.59
2022-11-05T12:53:56.994Z,101516.81
2022-11-05T12:59:10.646Z,101523.06
2022-11-05T13:04:24.912Z,101517.22
2022-11-05T13:09:31.005Z,101500.44
2022-11-05T13:14:41.364Z,101499.41
2022-11-05T13:19:45.468Z,101488.78
2022-11-05T13:24:55.394Z,101491.69
2022-11-05T13:30:02.643Z,101485.13
2022-11-05T13:35:08.477Z,101472.41
2022-11-05T13:40:13.257Z,101475.81
2022-11-05T13:45:36.900Z,101470.06
2022-11-05T13:50:59.877Z,101474.28
2022-11-05T13:56:28.956Z,101464.38
2022-11-05T14:01:56.886Z,101474.03
2022-11-05T14:07:31.500Z,101467.56
2022-11-05T14:12:37.624Z,101463.06
2022-11-05T14:17:57.884Z,101467.03
2022-11-05T14:23:17.605Z,101456.25
2022-11-05T14:28:34.258Z,101451.75
2022-11-05T14:33:39.743Z,101453.53
2022-11-05T14:38:50.490Z,101455.09
2022-11-05T14:43:58.553Z,101473.19
2022-11-05T14:49:09.070Z,101470.91
2022-11-05T14:54:24.465Z,101477.09
2022-11-05T14:59:28.068Z,101469.22
2022-11-05T15:04:32.458Z,101469.06
2022-11-05T15:09:40.595Z,101474.06
2022-11-05T15:14:51.153Z,101455.72
2022-11-05T15:19:53.750Z,101455.25
2022-11-05T15:24:56.007Z,101460.31
2022-11-05T15:30:03.695Z,101452.19
2022-11-05T15:35:23.399Z,101455.38
2022-11-05T15:40:27.900Z,101460.19
2022-11-05T15:45:29.400Z,101451.84
2022-11-05T15:50:30.869Z,101457.94
2022-11-05T15:55:32.932Z,101449.09
2022-11-05T16:00:36.733Z,101459.16
2022-11-05T16:05:43.829Z,101442.22
2022-11-05T16:10:50.673Z,101445.66
2022-11-05T16:15:56.761Z,101441.06
2022-11-05T16:21:06.109Z,101434.75
2022-11-05T16:26:55.824Z,101438.53
2022-11-05T16:31:52.588Z,101431.78
2022-11-05T16:36:55.834Z,101431.59
2022-11-05T16:41:57.643Z,101424.78
2022-11-05T16:47:00.268Z,101429.38
2022-11-05T16:52:01.941Z,101421.41
2022-11-05T16:57:05.737Z,101421.41
2022-11-05T17:02:11.055Z,101428.81
2022-11-05T17:07:12.607Z,101426.41
2022-11-05T17:12:14.585Z,101439.47
2022-11-05T17:17:16.041Z,101431.41
2022-11-05T17:22:17.501Z,101425.09
2022-11-05T17:27:18.963Z,101433.16
2022-11-05T17:32:20.477Z,101419.38
2022-11-05T17:37:23.019Z,101421.56
2022-11-05T17:42:24.529Z,101429.41
2022-11-05T17:47:26.826Z,101436.00
2022-11-05T17:52:28.794Z,101414.66
2022-11-05T17:57:30.278Z,101418.22
2022-11-05T18:02:33.971Z,101424.69
2022-11-05T18:07:35.672Z,101418.91
2022-11-05T18:12:37.990Z,101417.28
2022-11-05T18:17:39.697Z,101417.91
2022-11-05T18:22:41.637Z,101408.66
2022-11-05T18:27:43.104Z,101400.88
2022-11-05T18:32:45.396Z,101405.88
2022-11-05T18:37:46.885Z,101401.25
2022-11-05T18:42:48.408Z,101392.09
2022-11-05T18:47:49.860Z,101382.72
2022-11-05T18:52:51.345Z,101385.31
2022-11-05T18:57:52.799Z,101337.34
2022-11-05T19:02:54.615Z,101339.06
2022-11-05T19:07:56.435Z,101339.22
2022-11-05T19:12:57.985Z,101339.06
2022-11-05T19:17:59.459Z,101337.34
2022-11-05T19:23:00.931Z,101342.50
2022-11-05T19:28:02.903Z,101336.03
2022-11-05T19:33:04.608Z,101337.56
2022-11-05T19:38:06.058Z,101345.63
2022-11-05T19:43:08.822Z,101326.53
2022-11-05T19:48:13.561Z,101321.56
2022-11-05T19:53:19.669Z,101315.44
2022-11-05T19:58:21.152Z,101299.06
2022-11-05T20:03:22.646Z,101308.81
2022-11-05T20:08:24.130Z,101308.66
2022-11-05T20:13:25.673Z,101304.91
2022-11-05T20:18:27.757Z,101308.31
2022-11-05T20:23:31.174Z,101301.31
2022-11-05T20:28:34.003Z,101305.75
2022-11-05T20:33:35.514Z,101285.78
2022-11-05T20:38:36.984Z,101290.09
2022-11-05T20:43:41.044Z,101287.03
2022-11-05T20:48:44.671Z,101291.63
2022-11-05T20:53:46.734Z,101285.31
2022-11-05T20:58:48.777Z,101298.81
2022-11-05T21:03:50.514Z,101286.00
2022-11-05T21:08:52.706Z,101289.38
2022-11-05T21:13:54.751Z,101275.72
2022-11-05T21:18:56.277Z,101279.31
2022-11-05T21:23:57.745Z,101281.03
2022-11-05T21:28:59.197Z,101283.22
2022-11-05T21:34:00.672Z,101266.53
2022-11-05T21:39:03.065Z,101273.84
2022-11-05T21:44:04.956Z,101270.28
2022-11-05T21:49:06.566Z,101269.25
2022-11-05T21:54:28.812Z,101266.84
2022-11-05T21:59:48.850Z,101264.25
2022-11-05T22:04:52.742Z,101269.59
2022-11-05T22:09:54.739Z,101259.69
2022-11-05T22:14:56.301Z,101258.97
2022-11-05T22:19:58.460Z,101257.28
2022-11-05T22:25:00.058Z,101262.41
2022-11-05T22:30:01.585Z,101255.22
2022-11-05T22:35:03.315Z,101244.47
2022-11-05T22:40:05.204Z,101243.94
2022-11-05T22:45:07.053Z,101230.28
2022-11-05T22:50:08.891Z,101232.88
2022-11-05T22:55:10.503Z,101219.22
2022-11-05T23:00:18.397Z,101237.31
2022-11-05T23:05:19.853Z,101227.41
2022-11-05T23:10:40.026Z,101206.75
2022-11-05T23:15:59.866Z,101215.94
2022-11-05T23:21:23.007Z,101212.03
2022-11-05T23:26:43.156Z,101222.09
2022-11-05T23:32:03.652Z,101209.16
2022-11-05T23:37:24.364Z,101193.78
2022-11-05T23:42:44.168Z,101197.69
2022-11-05T23:48:04.357Z,101184.91
2022-11-05T23:53:05.889Z,101181.31
2022-11-05T23:58:08.253Z,101178.91
